createdAt,value
2023-04-23T00:02:23.126Z,80.12
2023-04-23T00:04:52.894Z,80.34
2023-04-23T00:07:22.024Z,80.51
2023-04-23T00:09:52.914Z,80.47
2023-04-23T00:12:21.226Z,79.52
2023-04-23T00:14:48.569Z,79.90
2023-04-23T00:17:15.740Z,80.32
2023-04-23T00:19:42.982Z,81.01
2023-04-23T00:22:10.113Z,81.56
2023-04-23T00:24:39.364Z,81.08
2023-04-23T00:27:06.921Z,80.41
2023-04-23T00:29:35.885Z,79.66
2023-04-23T00:32:03.603Z,80.35
2023-04-23T00:34:33.535Z,80.73
2023-04-23T00:37:00.596Z,80.11
2023-04-23T00:39:27.880Z,79.92
2023-04-23T00:41:55.024Z,79.32
2023-04-23T00:44:22.703Z,79.92
2023-04-23T00:46:50.536Z,80.25
2023-04-23T00:49:19.255Z,79.78
2023-04-23T00:51:46.399Z,79.06
2023-04-23T00:54:14.524Z,79.84
2023-04-23T00:56:41.634Z,80.05
2023-04-23T00:59:08.946Z,80.35
2023-04-23T01:01:36.279Z,81.42
2023-04-23T01:04:03.905Z,81.10
2023-04-23T01:06:32.027Z,79.79
2023-04-23T01:08:59.579Z,80.63
2023-04-23T01:11:27.031Z,80.73
2023-04-23T01:13:58.535Z,80.72
2023-04-23T01:16:25.693Z,80.37
2023-04-23T01:18:54.145Z,80.59
2023-04-23T01:21:21.533Z,80.14
2023-04-23T01:23:49.152Z,80.20
2023-04-23T01:26:16.722Z,80.23
2023-04-23T01:28:50.110Z,81.28
2023-04-23T01:31:17.526Z,81.52
2023-04-23T01:33:44.961Z,80.89
2023-04-23T01:36:12.631Z,80.15
2023-04-23T01:38:39.887Z,80.72
2023-04-23T01:41:06.931Z,80.51
2023-04-23T01:43:34.787Z,81.07
2023-04-23T01:46:02.164Z,79.56
2023-04-23T01:48:29.364Z,80.63
2023-04-23T01:50:57.116Z,80.95
2023-04-23T01:53:24.355Z,80.56
2023-04-23T01:55:52.749Z,79.90
2023-04-23T01:58:19.814Z,79.39
2023-04-23T02:00:47.541Z,79.88
2023-04-23T02:03:15.123Z,78.40
2023-04-23T02:05:42.951Z,78.48
2023-04-23T02:08:10.614Z,79.46
2023-04-23T02:10:37.937Z,79.00
2023-04-23T02:13:05.304Z,79.09
2023-04-23T02:15:32.801Z,79.58
2023-04-23T02:18:00.812Z,80.39
2023-04-23T02:20:27.924Z,80.05
2023-04-23T02:22:55.132Z,78.70
2023-04-23T02:25:22.167Z,78.18
2023-04-23T02:27:49.600Z,79.68
2023-04-23T02:30:16.835Z,79.51
2023-04-23T02:32:44.154Z,80.12
2023-04-23T02:35:11.317Z,79.85
2023-04-23T02:37:38.409Z,79.96
2023-04-23T02:40:06.935Z,78.74
2023-04-23T02:42:34.454Z,78.11
2023-04-23T02:45:01.667Z,76.63
2023-04-23T02:47:28.790Z,76.94
2023-04-23T02:49:56.224Z,76.81
2023-04-23T02:52:23.259Z,76.22
2023-04-23T02:54:50.378Z,76.99
2023-04-23T02:57:21.534Z,77.30
2023-04-23T02:59:48.670Z,77.39
2023-04-23T03:02:19.173Z,77.95
2023-04-23T03:04:47.108Z,78.75
2023-04-23T03:07:17.518Z,78.90
2023-04-23T03:09:44.669Z,79.34
2023-04-23T03:12:11.813Z,79.24
2023-04-23T03:14:39.167Z,79.89
2023-04-23T03:17:06.566Z,79.96
2023-04-23T03:19:37.571Z,79.96
2023-04-23T03:22:05.949Z,79.79
2023-04-23T03:24:33.829Z,79.75
2023-04-23T03:27:00.999Z,80.16
2023-04-23T03:29:28.587Z,76.38
2023-04-23T03:31:56.854Z,76.74
2023-04-23T03:34:27.429Z,77.06
2023-04-23T03:36:54.725Z,77.46
2023-04-23T03:39:21.953Z,78.38
2023-04-23T03:41:52.625Z,79.80
2023-04-23T03:44:24.001Z,80.71
2023-04-23T03:46:52.762Z,79.81
2023-04-23T03:49:21.004Z,79.95
2023-04-23T03:51:48.083Z,79.01
2023-04-23T03:54:16.066Z,80.93
2023-04-23T03:57:06.852Z,79.72
2023-04-23T03:59:43.267Z,79.65
2023-04-23T04:02:11.127Z,80.02
2023-04-23T04:04:38.604Z,79.70
2023-04-23T04:07:07.500Z,79.18
2023-04-23T04:09:34.660Z,78.99
2023-04-23T04:12:02.113Z,80.38
2023-04-23T04:14:29.167Z,79.44
2023-04-23T04:16:57.084Z,78.41
2023-04-23T04:19:24.620Z,78.73
2023-04-23T04:21:59.325Z,78.18
2023-04-23T04:24:26.442Z,77.79
2023-04-23T04:26:54.153Z,78.61
2023-04-23T04:29:21.569Z,79.35
2023-04-23T04:31:52.708Z,79.64
2023-04-23T04:34:20.488Z,79.61
2023-04-23T04:36:48.016Z,79.93
2023-04-23T04:39:15.251Z,80.73
2023-04-23T04:41:43.054Z,81.17
2023-04-23T04:44:10.075Z,81.45
2023-04-23T04:46:40.432Z,85.18
2023-04-23T04:49:09.177Z,84.39
2023-04-23T04:51:37.420Z,83.10
2023-04-23T04:54:04.913Z,82.45
2023-04-23T04:56:32.082Z,81.99
2023-04-23T04:58:59.039Z,81.02
2023-04-23T05:01:27.668Z,80.33
2023-04-23T05:03:56.236Z,81.63
2023-04-23T05:06:23.566Z,83.85
2023-04-23T05:08:50.519Z,82.34
2023-04-23T05:11:20.272Z,82.93
2023-04-23T05:13:48.563Z,86.16
2023-04-23T05:16:15.963Z,87.10
2023-04-23T05:18:43.233Z,87.43
2023-04-23T05:21:10.581Z,88.07
2023-04-23T05:23:37.910Z,88.57
2023-04-23T05:26:05.048Z,87.54
2023-04-23T05:28:32.177Z,87.48
2023-04-23T05:30:59.369Z,87.61
2023-04-23T05:33:30.707Z,87.61
2023-04-23T05:36:00.443Z,87.25
2023-04-23T05:38:27.501Z,85.51
2023-04-23T05:40:54.543Z,84.16
2023-04-23T05:43:21.594Z,82.53
2023-04-23T05:45:48.799Z,81.34
2023-04-23T05:48:16.168Z,80.96
2023-04-23T05:50:43.464Z,81.16
2023-04-23T05:53:10.614Z,81.63
2023-04-23T05:55:37.780Z,82.31
2023-04-23T05:58:05.388Z,81.65
2023-04-23T06:00:32.789Z,81.56
2023-04-23T06:03:00.104Z,81.88
2023-04-23T06:05:27.441Z,81.34
2023-04-23T06:07:54.810Z,81.91
2023-04-23T06:10:23.260Z,82.03
2023-04-23T06:12:50.372Z,79.48
2023-04-23T06:15:17.415Z,80.93
2023-04-23T06:17:45.181Z,79.80
2023-04-23T06:20:12.501Z,79.19
2023-04-23T06:22:39.751Z,78.37
2023-04-23T06:25:07.518Z,78.77
2023-04-23T06:27:34.685Z,78.91
2023-04-23T06:30:08.592Z,77.77
2023-04-23T06:32:36.418Z,76.99
2023-04-23T06:35:04.775Z,78.28
2023-04-23T06:37:32.155Z,79.14
2023-04-23T06:39:59.919Z,77.28
2023-04-23T06:42:27.217Z,76.41
2023-04-23T06:48:07.398Z,79.57
2023-04-23T06:50:34.686Z,79.32
2023-04-23T06:53:07.500Z,75.56
2023-04-23T06:55:34.817Z,70.82
2023-04-23T06:58:01.930Z,73.80
2023-04-23T07:00:29.042Z,75.41
2023-04-23T07:02:56.593Z,74.95
2023-04-23T07:05:23.919Z,76.19
2023-04-23T07:07:51.188Z,72.30
2023-04-23T07:10:18.495Z,73.13
2023-04-23T07:12:46.093Z,72.13
2023-04-23T07:15:13.398Z,71.51
2023-04-23T07:17:40.626Z,70.73
2023-04-23T07:20:09.024Z,70.48
2023-04-23T07:22:39.202Z,68.55
2023-04-23T07:25:08.767Z,68.89
2023-04-23T07:27:36.187Z,69.39
2023-04-23T07:30:03.776Z,70.80
2023-04-23T07:32:31.001Z,71.62
2023-04-23T07:34:58.197Z,70.16
2023-04-23T07:37:25.354Z,69.81
2023-04-23T07:39:54.082Z,72.45
2023-04-23T07:42:21.160Z,74.25
2023-04-23T07:44:48.469Z,74.72
2023-04-23T07:47:15.849Z,75.67
2023-04-23T07:49:43.248Z,74.45
2023-04-23T07:52:11.085Z,66.31
2023-04-23T07:54:41.996Z,69.45
2023-04-23T07:57:11.569Z,68.57
2023-04-23T07:59:44.122Z,72.02
2023-04-23T08:02:12.785Z,71.64
2023-04-23T08:04:40.105Z,75.81
2023-04-23T08:07:07.279Z,76.80
2023-04-23T08:09:34.666Z,79.61
2023-04-23T08:12:02.267Z,75.46
2023-04-23T08:14:29.262Z,68.16
2023-04-23T08:16:56.318Z,67.41
2023-04-23T08:19:23.500Z,68.29
2023-04-23T08:21:51.055Z,67.95
2023-04-23T08:24:18.555Z,71.99
2023-04-23T08:26:46.933Z,72.50
2023-04-23T08:29:14.401Z,69.72
2023-04-23T08:31:41.969Z,69.90
2023-04-23T08:34:09.101Z,70.38
2023-04-23T08:36:39.162Z,69.40
2023-04-23T08:39:06.241Z,71.38
2023-04-23T08:41:43.369Z,70.36
2023-04-23T08:44:19.098Z,70.25
2023-04-23T08:46:46.651Z,71.30
2023-04-23T08:49:18.487Z,71.25
2023-04-23T08:51:55.285Z,70.86
2023-04-23T08:54:27.183Z,71.47
2023-04-23T08:56:58.556Z,71.49
2023-04-23T08:59:34.446Z,69.65
2023-04-23T09:02:08.292Z,68.78
2023-04-23T09:04:36.494Z,69.57
2023-04-23T09:07:04.775Z,69.34
2023-04-23T09:09:33.886Z,66.71
2023-04-23T09:12:01.475Z,68.78
2023-04-23T09:14:28.666Z,69.53
2023-04-23T09:16:56.026Z,68.15
2023-04-23T09:19:27.457Z,67.74
2023-04-23T09:21:55.003Z,68.65
2023-04-23T09:24:26.394Z,70.23
2023-04-23T09:26:55.105Z,65.56
2023-04-23T09:29:24.036Z,58.41
2023-04-23T09:31:56.116Z,62.77
2023-04-23T09:34:24.658Z,64.10
2023-04-23T09:36:53.386Z,68.64
2023-04-23T09:39:23.705Z,64.50
2023-04-23T09:41:53.851Z,55.65
2023-04-23T09:44:26.701Z,57.90
2023-04-23T09:46:53.744Z,56.55
2023-04-23T09:49:21.005Z,57.89
2023-04-23T09:51:49.595Z,56.40
2023-04-23T09:54:19.094Z,58.76
2023-04-23T09:56:50.767Z,54.18
2023-04-23T09:59:39.949Z,55.35
2023-04-23T10:02:13.684Z,58.30
2023-04-23T10:04:42.182Z,58.95
2023-04-23T10:09:43.889Z,59.26
2023-04-23T10:12:20.780Z,60.06
2023-04-23T10:14:59.803Z,56.43
2023-04-23T10:17:27.188Z,55.59
2023-04-23T10:19:56.001Z,54.52
2023-04-23T10:22:25.859Z,56.41
2023-04-23T10:24:57.527Z,56.80
2023-04-23T10:27:40.342Z,58.92
2023-04-23T10:30:15.451Z,59.51
2023-04-23T10:32:42.548Z,59.54
2023-04-23T10:35:10.123Z,61.34
2023-04-23T10:37:38.579Z,62.73
2023-04-23T10:40:14.533Z,60.87
2023-04-23T10:42:43.906Z,56.75
2023-04-23T10:45:25.557Z,58.63
2023-04-23T10:47:56.449Z,61.72
2023-04-23T10:50:31.412Z,60.39
2023-04-23T10:52:59.023Z,54.98
2023-04-23T10:55:32.744Z,59.93
2023-04-23T10:58:06.768Z,62.50
2023-04-23T11:00:46.227Z,58.73
2023-04-23T11:03:32.655Z,53.93
2023-04-23T11:06:04.270Z,54.89
2023-04-23T11:08:35.083Z,58.34
2023-04-23T11:11:10.998Z,57.63
2023-04-23T11:13:53.550Z,49.43
2023-04-23T11:16:24.037Z,51.88
2023-04-23T11:19:08.360Z,54.46
2023-04-23T11:22:01.172Z,53.01
2023-04-23T11:24:42.918Z,53.98
2023-04-23T11:27:16.721Z,56.53
2023-04-23T11:29:45.892Z,56.25
2023-04-23T11:32:17.444Z,56.50
2023-04-23T11:34:46.785Z,55.13
2023-04-23T11:37:18.649Z,56.25
2023-04-23T11:39:47.743Z,54.51
2023-04-23T11:42:15.889Z,55.17
2023-04-23T11:44:44.414Z,52.46
2023-04-23T11:47:13.722Z,52.91
2023-04-23T11:49:45.519Z,53.11
2023-04-23T11:52:14.585Z,52.94
2023-04-23T11:54:42.232Z,54.21
2023-04-23T11:57:10.462Z,57.40
2023-04-23T11:59:38.048Z,55.84
2023-04-23T12:02:05.154Z,57.72
2023-04-23T12:04:33.433Z,54.26
2023-04-23T12:07:01.040Z,53.45
2023-04-23T12:09:29.578Z,50.65
2023-04-23T12:11:58.663Z,51.82
2023-04-23T12:14:31.183Z,52.62
2023-04-23T12:17:08.939Z,55.50
2023-04-23T12:19:36.648Z,54.49
2023-04-23T12:22:04.909Z,54.44
2023-04-23T12:24:49.259Z,55.98
2023-04-23T12:27:20.536Z,54.72
2023-04-23T12:29:51.502Z,58.19
2023-04-23T12:32:23.125Z,57.83
2023-04-23T12:34:55.806Z,56.41
2023-04-23T12:37:29.479Z,54.61
2023-04-23T12:39:59.659Z,51.87
2023-04-23T12:42:27.095Z,54.84
2023-04-23T12:44:56.419Z,56.97
2023-04-23T12:47:23.582Z,58.13
2023-04-23T12:49:53.952Z,54.85
2023-04-23T12:52:21.379Z,55.65
2023-04-23T12:54:52.373Z,55.49
2023-04-23T12:57:23.401Z,56.86
2023-04-23T12:59:51.076Z,55.61
2023-04-23T13:02:18.487Z,57.44
2023-04-23T13:04:45.691Z,57.50
2023-04-23T13:07:12.732Z,58.95
2023-04-23T13:09:39.847Z,59.06
2023-04-23T13:12:06.979Z,59.13
2023-04-23T13:14:34.050Z,57.43
2023-04-23T13:17:01.303Z,59.00
2023-04-23T13:19:29.726Z,57.74
2023-04-23T13:21:56.768Z,57.93
2023-04-23T13:24:23.840Z,56.29
2023-04-23T13:26:50.919Z,56.71
2023-04-23T13:29:17.950Z,58.30
2023-04-23T13:31:45.152Z,58.56
2023-04-23T13:34:12.192Z,59.65
2023-04-23T13:36:41.740Z,61.26
2023-04-23T13:39:10.258Z,61.02
2023-04-23T13:41:37.665Z,60.83
2023-04-23T13:44:04.659Z,60.72
2023-04-23T13:46:32.165Z,60.84
2023-04-23T13:49:01.223Z,59.48
2023-04-23T13:51:35.836Z,58.97
2023-04-23T13:54:03.937Z,58.63
2023-04-23T13:56:31.429Z,58.29
2023-04-23T13:59:18.856Z,59.97
2023-04-23T14:01:50.143Z,60.48
2023-04-23T14:04:18.812Z,61.02
2023-04-23T14:06:45.930Z,58.92
2023-04-23T14:09:12.842Z,60.43
2023-04-23T14:11:40.749Z,59.84
2023-04-23T14:14:08.030Z,60.25
2023-04-23T14:16:35.645Z,59.75
2023-04-23T14:19:02.749Z,59.46
2023-04-23T14:21:29.939Z,59.15
2023-04-23T14:24:03.239Z,59.92
2023-04-23T14:26:47.427Z,59.40
2023-04-23T14:29:29.254Z,59.12
2023-04-23T14:31:56.459Z,59.00
2023-04-23T14:34:23.519Z,58.75
2023-04-23T14:36:53.257Z,57.70
2023-04-23T14:39:22.692Z,58.51
2023-04-23T14:41:49.837Z,57.18
2023-04-23T14:44:17.023Z,57.96
2023-04-23T14:46:44.458Z,57.68
2023-04-23T14:49:11.423Z,58.63
2023-04-23T14:51:38.689Z,59.14
2023-04-23T14:54:05.888Z,59.12
2023-04-23T14:56:32.889Z,59.33
2023-04-23T14:58:59.865Z,56.09
2023-04-23T15:01:27.350Z,55.30
2023-04-23T15:03:54.435Z,56.24
2023-04-23T15:06:21.606Z,56.91
2023-04-23T15:08:48.718Z,56.77
2023-04-23T15:11:15.734Z,57.51
2023-04-23T15:13:50.562Z,58.02
2023-04-23T15:19:10.314Z,59.45
2023-04-23T15:21:37.840Z,60.83
2023-04-23T15:24:05.074Z,57.11
2023-04-23T15:26:33.864Z,57.98
2023-04-23T15:29:00.990Z,59.31
2023-04-23T15:31:27.981Z,59.19
2023-04-23T15:33:54.970Z,58.59
2023-04-23T15:36:33.628Z,59.01
2023-04-23T15:39:00.803Z,59.95
2023-04-23T15:41:27.746Z,59.02
2023-04-23T15:43:55.711Z,59.03
2023-04-23T15:46:22.728Z,58.91
2023-04-23T15:48:49.740Z,56.93
2023-04-23T15:51:16.779Z,55.70
2023-04-23T15:53:44.020Z,56.34
2023-04-23T15:56:11.135Z,56.71
2023-04-23T15:58:38.087Z,56.84
2023-04-23T16:01:07.356Z,58.12
2023-04-23T16:03:34.958Z,58.37
2023-04-23T16:06:02.359Z,58.08
2023-04-23T16:08:29.369Z,58.43
2023-04-23T16:10:58.231Z,58.12
2023-04-23T16:13:29.081Z,58.85
2023-04-23T16:15:56.316Z,59.42
2023-04-23T16:18:23.283Z,59.93
2023-04-23T16:23:31.153Z,60.46
2023-04-23T16:25:59.550Z,61.27
2023-04-23T16:28:26.565Z,61.06
2023-04-23T16:30:53.694Z,61.07
2023-04-23T16:33:20.874Z,61.07
2023-04-23T16:35:47.948Z,61.09
2023-04-23T16:38:14.908Z,61.23
2023-04-23T16:40:42.331Z,61.52
2023-04-23T16:43:10.286Z,61.52
2023-04-23T16:45:38.809Z,61.59
2023-04-23T16:48:06.773Z,61.79
2023-04-23T16:50:33.860Z,61.71
2023-04-23T16:53:01.534Z,61.76
2023-04-23T16:55:31.840Z,61.20
2023-04-23T16:57:58.974Z,61.80
2023-04-23T17:00:25.964Z,61.95
2023-04-23T17:02:53.108Z,62.12
2023-04-23T17:05:24.150Z,62.39
2023-04-23T17:07:52.989Z,62.93
2023-04-23T17:10:20.097Z,62.94
2023-04-23T17:12:47.180Z,63.37
2023-04-23T17:15:14.212Z,63.90
2023-04-23T17:17:41.240Z,64.18
2023-04-23T17:20:09.086Z,63.78
2023-04-23T17:22:36.289Z,63.55
2023-04-23T17:25:06.453Z,63.99
2023-04-23T17:27:34.049Z,64.01
2023-04-23T17:30:01.062Z,64.43
2023-04-23T17:32:28.123Z,64.43
2023-04-23T17:35:06.381Z,64.60
2023-04-23T17:37:36.214Z,64.50
2023-04-23T17:40:05.959Z,64.64
2023-04-23T17:42:33.520Z,65.24
2023-04-23T17:45:00.814Z,65.37
2023-04-23T17:47:29.144Z,65.41
2023-04-23T17:49:56.069Z,65.76
2023-04-23T17:52:23.152Z,65.80
2023-04-23T17:54:50.077Z,65.86
2023-04-23T17:57:17.074Z,65.88
2023-04-23T17:59:44.332Z,66.13
2023-04-23T18:02:11.615Z,66.21
2023-04-23T18:04:38.715Z,66.27
2023-04-23T18:07:06.214Z,66.32
2023-04-23T18:09:33.219Z,66.56
2023-04-23T18:12:00.417Z,66.81
2023-04-23T18:14:27.415Z,66.55
2023-04-23T18:16:54.522Z,64.93
2023-04-23T18:19:21.546Z,64.21
2023-04-23T18:21:50.034Z,63.96
2023-04-23T18:24:18.815Z,63.42
2023-04-23T18:26:45.740Z,62.74
2023-04-23T18:29:12.966Z,62.38
2023-04-23T18:31:39.966Z,62.80
2023-04-23T18:34:10.199Z,62.73
2023-04-23T18:36:41.895Z,63.57
2023-04-23T18:39:09.081Z,63.65
2023-04-23T18:41:36.480Z,63.32
2023-04-23T18:44:03.457Z,62.95
2023-04-23T18:46:33.907Z,63.30
2023-04-23T18:49:01.357Z,63.46
2023-04-23T18:51:37.969Z,63.66
2023-04-23T18:54:05.986Z,63.83
2023-04-23T18:56:33.083Z,63.65
2023-04-23T18:59:00.209Z,63.41
2023-04-23T19:01:28.531Z,63.55
2023-04-23T19:03:56.893Z,63.86
2023-04-23T19:06:24.277Z,63.66
2023-04-23T19:08:51.320Z,63.51
2023-04-23T19:11:18.481Z,63.30
2023-04-23T19:13:45.468Z,63.51
2023-04-23T19:16:12.847Z,63.75
2023-04-23T19:18:40.085Z,63.81
2023-04-23T19:21:07.189Z,64.33
2023-04-23T19:23:34.368Z,64.90
2023-04-23T19:26:02.233Z,64.45
2023-04-23T19:28:29.294Z,64.26
2023-04-23T19:30:56.701Z,64.70
2023-04-23T19:33:24.206Z,64.35
2023-04-23T19:35:51.166Z,64.15
2023-04-23T19:38:18.208Z,64.37
2023-04-23T19:40:45.364Z,64.12
2023-04-23T19:43:12.894Z,64.28
2023-04-23T19:45:41.645Z,63.81
2023-04-23T19:48:08.765Z,64.04
2023-04-23T19:50:36.138Z,63.84
2023-04-23T19:53:06.154Z,63.83
2023-04-23T19:55:33.092Z,63.88
2023-04-23T19:58:00.757Z,64.31
2023-04-23T20:00:30.780Z,64.61
2023-04-23T20:02:58.284Z,64.49
2023-04-23T20:05:25.823Z,64.45
2023-04-23T20:07:52.816Z,64.94
2023-04-23T20:10:20.043Z,65.04
2023-04-23T20:12:46.972Z,65.66
2023-04-23T20:15:14.327Z,65.38
2023-04-23T20:17:41.785Z,65.38
2023-04-23T20:20:10.783Z,65.75
2023-04-23T20:22:37.773Z,65.56
2023-04-23T20:25:05.394Z,65.55
2023-04-23T20:27:33.396Z,65.92
2023-04-23T20:30:00.624Z,65.75
2023-04-23T20:32:27.613Z,65.29
2023-04-23T20:34:54.650Z,65.45
2023-04-23T20:37:26.947Z,65.44
2023-04-23T20:39:54.433Z,65.45
2023-04-23T20:42:21.787Z,65.41
2023-04-23T20:44:49.114Z,65.51
2023-04-23T20:47:16.657Z,65.90
2023-04-23T20:49:43.981Z,65.21
2023-04-23T20:52:12.615Z,65.36
2023-04-23T20:54:39.597Z,65.63
2023-04-23T20:57:07.127Z,65.23
2023-04-23T20:59:34.124Z,65.18
2023-04-23T21:02:01.393Z,65.88
2023-04-23T21:04:28.666Z,65.95
2023-04-23T21:06:56.368Z,65.67
2023-04-23T21:09:23.771Z,66.00
2023-04-23T21:11:51.135Z,65.62
2023-04-23T21:14:18.169Z,65.47
2023-04-23T21:16:45.166Z,66.28
2023-04-23T21:19:12.140Z,66.80
2023-04-23T21:21:39.175Z,67.11
2023-04-23T21:24:06.540Z,66.66
2023-04-23T21:26:33.552Z,66.81
2023-04-23T21:29:00.605Z,66.68
2023-04-23T21:31:52.194Z,66.85
2023-04-23T21:34:22.450Z,67.37
2023-04-23T21:36:49.947Z,66.60
2023-04-23T21:39:17.008Z,66.68
2023-04-23T21:41:44.930Z,66.90
2023-04-23T21:44:12.036Z,66.74
2023-04-23T21:46:39.209Z,66.62
2023-04-23T21:49:06.939Z,66.70
2023-04-23T21:51:41.181Z,66.36
2023-04-23T21:54:08.245Z,66.58
2023-04-23T21:56:36.089Z,67.36
2023-04-23T21:59:03.201Z,66.95
2023-04-23T22:01:32.488Z,67.16
2023-04-23T22:04:01.864Z,67.91
2023-04-23T22:06:29.638Z,67.53
2023-04-23T22:08:58.046Z,68.06
2023-04-23T22:11:25.871Z,68.33
2023-04-23T22:13:52.931Z,68.12
2023-04-23T22:16:28.671Z,67.92
2023-04-23T22:18:59.378Z,67.82
2023-04-23T22:21:26.403Z,68.30
2023-04-23T22:23:53.362Z,68.54
2023-04-23T22:26:21.278Z,68.53
2023-04-23T22:28:48.796Z,68.51
2023-04-23T22:31:16.114Z,68.47
2023-04-23T22:33:43.236Z,69.50
2023-04-23T22:36:10.250Z,67.40
2023-04-23T22:38:37.282Z,67.80
2023-04-23T22:41:04.340Z,67.80
2023-04-23T22:43:31.376Z,68.61
2023-04-23T22:45:58.437Z,68.39
2023-04-23T22:48:25.591Z,68.70
2023-04-23T22:50:52.756Z,69.15
2023-04-23T22:53:19.897Z,69.01
2023-04-23T22:55:47.468Z,70.19
2023-04-23T22:58:14.573Z,69.18
2023-04-23T23:00:42.048Z,68.56
2023-04-23T23:03:09.520Z,68.31
2023-04-23T23:05:36.833Z,68.87
2023-04-23T23:08:03.952Z,68.67
2023-04-23T23:10:31.054Z,68.52
2023-04-23T23:12:58.060Z,68.90
2023-04-23T23:15:24.984Z,68.36
2023-04-23T23:17:52.063Z,68.65
2023-04-23T23:20:19.820Z,68.54
2023-04-23T23:22:47.104Z,69.06
2023-04-23T23:25:14.069Z,69.32
2023-04-23T23:27:41.642Z,69.33
2023-04-23T23:30:09.848Z,69.49
2023-04-23T23:32:37.141Z,69.95
2023-04-23T23:35:04.492Z,69.87
2023-04-23T23:37:31.427Z,70.06
2023-04-23T23:40:08.692Z,70.39
2023-04-23T23:42:35.604Z,70.49
2023-04-23T23:45:02.941Z,70.72
2023-04-23T23:47:29.968Z,71.01
2023-04-23T23:49:56.989Z,71.21
2023-04-23T23:52:23.984Z,71.10
2023-04-23T23:54:51.424Z,71.15
2023-04-23T23:57:18.442Z,70.93
2023-04-23T23:59:45.621Z,71.07
